createdAt,value
2018-12-31T00:00:13.284Z,29.10
2018-12-31T00:01:13.230Z,30.70
2018-12-31T00:02:13.216Z,29.90
2018-12-31T00:03:13.239Z,31.60
2018-12-31T00:04:13.203Z,29.20
2018-12-31T00:05:13.280Z,32.40
2018-12-31T00:06:13.177Z,34.60
2018-12-31T00:07:13.267Z,30.20
2018-12-31T00:08:13.143Z,32.80
2018-12-31T00:09:13.234Z,32.70
2018-12-31T00:10:13.192Z,36.90
2018-12-31T00:11:13.117Z,36.50
2018-12-31T00:12:13.101Z,34.40
2018-12-31T00:13:13.092Z,35.40
2018-12-31T00:14:13.117Z,32.10
2018-12-31T00:15:13.110Z,35.30
2018-12-31T00:16:13.071Z,31.20
2018-12-31T00:17:13.121Z,36.20
2018-12-31T00:18:13.044Z,35.60
2018-12-31T00:19:13.046Z,32.30
2018-12-31T00:20:13.059Z,33.20
2018-12-31T00:21:13.018Z,32.30
2018-12-31T00:22:13.017Z,33.70
2018-12-31T00:23:13.016Z,34.10
2018-12-31T00:24:13.516Z,33.80
2018-12-31T00:25:12.979Z,28.50
2018-12-31T00:26:12.986Z,31.50
2018-12-31T00:27:13.473Z,39.00
2018-12-31T00:28:13.271Z,33.10
2018-12-31T00:29:13.612Z,30.60
2018-12-31T00:30:12.930Z,34.00
2018-12-31T00:31:12.913Z,42.10
2018-12-31T00:32:12.942Z,35.70
2018-12-31T00:33:12.896Z,34.50
2018-12-31T00:34:12.880Z,36.10
2018-12-31T00:35:13.022Z,35.10
2018-12-31T00:36:12.862Z,42.00
2018-12-31T00:37:12.873Z,33.70
2018-12-31T00:38:12.830Z,38.70
2018-12-31T00:39:12.827Z,36.60
2018-12-31T00:40:12.840Z,36.60
2018-12-31T00:41:12.802Z,37.10
2018-12-31T00:42:12.789Z,45.10
2018-12-31T00:43:12.840Z,36.30
2018-12-31T00:44:12.779Z,38.00
2018-12-31T00:45:12.767Z,35.50
2018-12-31T00:46:12.759Z,37.40
2018-12-31T00:47:12.746Z,39.90
2018-12-31T00:48:12.737Z,39.10
2018-12-31T00:49:12.740Z,41.10
2018-12-31T00:50:12.724Z,44.30
2018-12-31T00:51:12.694Z,36.70
2018-12-31T00:52:12.698Z,40.70
2018-12-31T00:53:12.680Z,40.40
2018-12-31T00:54:12.707Z,37.80
2018-12-31T00:55:12.654Z,40.10
2018-12-31T00:56:12.649Z,41.10
2018-12-31T00:57:12.639Z,37.20
2018-12-31T00:58:12.638Z,41.00
2018-12-31T00:59:12.649Z,46.50
2018-12-31T01:00:12.650Z,45.70
2018-12-31T01:01:12.616Z,44.90
2018-12-31T01:02:12.610Z,42.80
2018-12-31T01:03:12.584Z,40.20
2018-12-31T01:04:12.570Z,47.70
2018-12-31T01:05:12.584Z,41.80
2018-12-31T01:06:12.580Z,45.80
2018-12-31T01:07:12.565Z,45.10
2018-12-31T01:08:12.536Z,43.40
2018-12-31T01:09:12.525Z,43.10
2018-12-31T01:10:12.507Z,42.10
2018-12-31T01:11:12.493Z,42.00
2018-12-31T01:12:12.540Z,46.80
2018-12-31T01:13:12.468Z,44.30
2018-12-31T01:14:12.456Z,53.90
2018-12-31T01:15:12.456Z,50.20
2018-12-31T01:16:12.440Z,42.90
2018-12-31T01:17:12.704Z,55.80
2018-12-31T01:18:12.431Z,46.50
2018-12-31T01:19:12.408Z,42.00
2018-12-31T01:20:12.843Z,50.70
2018-12-31T01:21:12.391Z,45.90
2018-12-31T01:22:12.413Z,45.20
2018-12-31T01:23:12.394Z,42.60
2018-12-31T01:24:12.382Z,50.00
2018-12-31T01:25:12.348Z,47.50
2018-12-31T01:26:12.334Z,49.50
2018-12-31T01:27:12.364Z,52.60
2018-12-31T01:28:12.308Z,45.40
2018-12-31T01:29:12.363Z,51.90
2018-12-31T01:30:12.288Z,46.40
2018-12-31T01:31:12.291Z,50.40
2018-12-31T01:32:12.267Z,50.00
2018-12-31T01:33:12.274Z,54.60
2018-12-31T01:34:12.287Z,48.40
2018-12-31T01:35:12.244Z,55.00
2018-12-31T01:36:12.231Z,55.30
2018-12-31T01:37:12.234Z,52.70
2018-12-31T01:38:12.207Z,52.20
2018-12-31T01:39:12.237Z,47.90
2018-12-31T01:40:12.221Z,49.00
2018-12-31T01:41:12.182Z,50.70
2018-12-31T01:42:12.169Z,47.70
2018-12-31T01:43:12.165Z,48.50
2018-12-31T01:44:12.249Z,53.20
2018-12-31T01:45:12.197Z,52.00
2018-12-31T01:46:12.176Z,54.70
2018-12-31T01:47:12.197Z,51.20
2018-12-31T01:48:12.106Z,53.90
2018-12-31T01:49:12.095Z,50.40
2018-12-31T01:50:12.109Z,53.30
2018-12-31T01:51:12.260Z,52.00
2018-12-31T01:52:12.056Z,58.30
2018-12-31T01:53:12.051Z,52.50
2018-12-31T01:54:12.052Z,52.50
2018-12-31T01:55:12.031Z,52.20
2018-12-31T01:56:12.022Z,49.30
2018-12-31T01:57:12.039Z,52.10
2018-12-31T01:58:12.023Z,50.60
2018-12-31T01:59:11.998Z,64.40
2018-12-31T02:00:11.977Z,49.50
2018-12-31T02:01:11.964Z,47.60
2018-12-31T02:02:11.953Z,53.50
2018-12-31T02:03:11.984Z,50.50
2018-12-31T02:04:11.934Z,47.30
2018-12-31T02:05:11.929Z,48.90
2018-12-31T02:06:11.911Z,48.70
2018-12-31T02:07:11.909Z,55.40
2018-12-31T02:08:11.924Z,47.40
2018-12-31T02:09:11.904Z,46.40
2018-12-31T02:10:11.876Z,50.00
2018-12-31T02:11:11.884Z,51.10
2018-12-31T02:12:11.858Z,54.00
2018-12-31T02:13:11.850Z,48.90
2018-12-31T02:14:11.865Z,50.70
2018-12-31T02:15:11.826Z,48.60
2018-12-31T02:16:11.820Z,49.50
2018-12-31T02:17:11.809Z,49.90
2018-12-31T02:18:11.796Z,48.60
2018-12-31T02:19:11.778Z,50.30
2018-12-31T02:20:11.801Z,47.50
2018-12-31T02:21:11.769Z,54.60
2018-12-31T02:22:11.818Z,47.70
2018-12-31T02:23:11.735Z,47.40
2018-12-31T02:24:11.725Z,54.40
2018-12-31T02:25:11.720Z,40.10
2018-12-31T02:26:13.611Z,48.00
2018-12-31T02:27:11.710Z,52.80
2018-12-31T02:28:11.681Z,49.60
2018-12-31T02:29:11.677Z,49.80
2018-12-31T02:30:11.662Z,53.70
2018-12-31T02:31:11.694Z,50.60
2018-12-31T02:32:11.646Z,50.10
2018-12-31T02:33:11.638Z,49.60
2018-12-31T02:34:11.625Z,51.30
2018-12-31T02:35:11.615Z,48.60
2018-12-31T02:36:11.619Z,51.20
2018-12-31T02:37:11.630Z,49.40
2018-12-31T02:38:11.593Z,62.20
2018-12-31T02:39:11.577Z,59.90
2018-12-31T02:40:11.565Z,51.00
2018-12-31T02:41:11.554Z,56.40
2018-12-31T02:42:11.560Z,56.20
2018-12-31T02:43:11.561Z,57.30
2018-12-31T02:44:11.523Z,61.60
2018-12-31T02:45:11.507Z,55.10
2018-12-31T02:46:11.500Z,54.50
2018-12-31T02:47:11.491Z,55.20
2018-12-31T02:48:11.567Z,53.50
2018-12-31T02:49:11.468Z,60.00
2018-12-31T02:50:11.456Z,61.40
2018-12-31T02:51:11.449Z,58.10
2018-12-31T02:52:11.436Z,61.00
2018-12-31T02:53:11.423Z,62.00
2018-12-31T02:54:11.448Z,68.00
2018-12-31T02:55:11.419Z,56.70
2018-12-31T02:56:11.398Z,59.50
2018-12-31T02:57:11.392Z,60.90
2018-12-31T02:58:11.385Z,59.90
2018-12-31T02:59:11.366Z,64.50
2018-12-31T03:00:11.374Z,64.40
2018-12-31T03:01:11.356Z,67.90
2018-12-31T03:02:11.333Z,71.20
2018-12-31T03:03:11.322Z,76.10
2018-12-31T03:04:11.353Z,70.60
2018-12-31T03:05:11.335Z,76.60
2018-12-31T03:06:11.296Z,72.50
2018-12-31T03:07:11.287Z,78.20
2018-12-31T03:08:11.269Z,66.00
2018-12-31T03:09:11.263Z,67.30
2018-12-31T03:10:11.266Z,71.80
2018-12-31T03:11:11.270Z,66.50
2018-12-31T03:12:11.227Z,68.70
2018-12-31T03:13:11.220Z,64.90
2018-12-31T03:14:11.213Z,62.30
2018-12-31T03:15:11.195Z,69.90
2018-12-31T03:16:11.183Z,69.40
2018-12-31T03:17:11.220Z,65.50
2018-12-31T03:18:11.159Z,57.20
2018-12-31T03:19:11.161Z,60.90
2018-12-31T03:20:11.148Z,65.50
2018-12-31T03:21:11.141Z,68.90
2018-12-31T03:22:11.125Z,61.00
2018-12-31T03:23:11.161Z,63.30
2018-12-31T03:24:11.103Z,61.20
2018-12-31T03:25:11.103Z,60.00
2018-12-31T03:26:11.090Z,61.60
2018-12-31T03:27:11.068Z,57.10
2018-12-31T03:28:11.086Z,53.90
2018-12-31T03:29:11.051Z,54.40
2018-12-31T03:30:11.058Z,57.50
2018-12-31T03:31:11.026Z,56.70
2018-12-31T03:32:11.013Z,55.60
2018-12-31T03:33:11.003Z,53.80
2018-12-31T03:34:11.021Z,56.40
2018-12-31T03:35:10.985Z,58.50
2018-12-31T03:36:10.970Z,57.50
2018-12-31T03:37:10.959Z,61.80
2018-12-31T03:38:10.954Z,58.90
2018-12-31T03:39:10.947Z,57.20
2018-12-31T03:40:10.958Z,53.00
2018-12-31T03:41:10.929Z,59.30
2018-12-31T03:42:10.909Z,78.00
2018-12-31T03:43:10.906Z,67.00
2018-12-31T03:44:10.891Z,72.10
2018-12-31T03:45:10.886Z,74.70
2018-12-31T03:46:10.897Z,77.30
2018-12-31T03:47:12.322Z,78.40
2018-12-31T03:48:10.860Z,71.80
2018-12-31T03:49:10.838Z,81.70
2018-12-31T03:50:10.829Z,75.00
2018-12-31T03:51:10.814Z,85.10
2018-12-31T03:52:10.864Z,84.30
2018-12-31T03:53:10.797Z,78.30
2018-12-31T03:54:10.796Z,73.50
2018-12-31T03:55:10.772Z,88.90
2018-12-31T03:56:10.762Z,74.70
2018-12-31T03:57:10.752Z,82.30
2018-12-31T03:58:10.773Z,74.70
2018-12-31T03:59:10.740Z,72.80
2018-12-31T04:00:10.729Z,75.00
2018-12-31T04:01:10.713Z,69.20
2018-12-31T04:02:10.706Z,71.10
2018-12-31T04:03:10.702Z,77.10
2018-12-31T04:04:10.711Z,73.90
2018-12-31T04:05:10.669Z,71.90
2018-12-31T04:06:10.680Z,79.70
2018-12-31T04:07:10.649Z,89.70
2018-12-31T04:08:10.634Z,89.10
2018-12-31T04:09:10.627Z,84.50
2018-12-31T04:10:10.641Z,88.10
2018-12-31T04:11:10.611Z,89.40
2018-12-31T04:12:10.595Z,85.80
2018-12-31T04:13:10.586Z,102.70
2018-12-31T04:14:10.576Z,94.90
2018-12-31T04:15:10.561Z,86.60
2018-12-31T04:16:10.579Z,99.30
2018-12-31T04:17:10.540Z,85.40
2018-12-31T04:18:10.528Z,81.00
2018-12-31T04:19:10.531Z,85.00
2018-12-31T04:20:10.507Z,82.50
2018-12-31T04:21:10.547Z,80.50
2018-12-31T04:22:10.529Z,93.70
2018-12-31T04:23:10.484Z,90.10
2018-12-31T04:24:10.468Z,82.90
2018-12-31T04:25:10.451Z,82.20
2018-12-31T04:26:10.447Z,89.10
2018-12-31T04:27:10.451Z,88.60
2018-12-31T04:28:10.460Z,74.20
2018-12-31T04:29:10.414Z,83.70
2018-12-31T04:30:10.410Z,106.80
2018-12-31T04:31:10.391Z,76.70
2018-12-31T04:32:10.389Z,99.00
2018-12-31T04:33:10.382Z,94.70
2018-12-31T04:34:10.386Z,92.20
2018-12-31T04:35:10.353Z,89.50
2018-12-31T04:36:10.343Z,88.30
2018-12-31T04:37:10.356Z,89.50
2018-12-31T04:38:10.324Z,94.60
2018-12-31T04:39:10.319Z,84.40
2018-12-31T04:40:10.335Z,85.40
2018-12-31T04:41:10.294Z,103.20
2018-12-31T04:42:10.310Z,92.00
2018-12-31T04:43:10.269Z,97.80
2018-12-31T04:44:10.261Z,102.70
2018-12-31T04:45:10.248Z,94.60
2018-12-31T04:46:10.264Z,92.20
2018-12-31T04:47:10.238Z,91.80
2018-12-31T04:48:10.220Z,86.40
2018-12-31T04:49:10.210Z,93.00
2018-12-31T04:50:10.200Z,108.40
2018-12-31T04:51:10.198Z,98.80
2018-12-31T04:52:10.207Z,112.30
2018-12-31T04:53:10.161Z,99.60
2018-12-31T04:54:10.167Z,112.80
2018-12-31T04:55:10.155Z,96.90
2018-12-31T04:56:10.137Z,127.10
2018-12-31T04:57:10.176Z,138.10
2018-12-31T04:58:10.152Z,84.40
2018-12-31T04:59:10.121Z,197.90
2018-12-31T05:00:10.095Z,133.00
2018-12-31T05:01:10.101Z,132.50
2018-12-31T05:02:10.073Z,139.80
2018-12-31T05:03:10.062Z,103.70
2018-12-31T05:04:10.074Z,114.00
2018-12-31T05:05:10.051Z,117.90
2018-12-31T05:06:10.026Z,127.60
2018-12-31T05:07:10.023Z,139.30
2018-12-31T05:08:10.010Z,155.40
2018-12-31T05:09:10.114Z,145.80
2018-12-31T05:10:10.014Z,166.40
2018-12-31T05:11:09.992Z,162.60
2018-12-31T05:12:09.965Z,163.80
2018-12-31T05:13:09.956Z,129.90
2018-12-31T05:14:09.942Z,133.80
2018-12-31T05:15:09.940Z,179.70
2018-12-31T05:16:09.946Z,208.50
2018-12-31T05:17:09.932Z,141.90
2018-12-31T05:18:09.904Z,188.20
2018-12-31T05:19:09.893Z,212.40
2018-12-31T05:20:09.886Z,192.00
2018-12-31T05:21:09.881Z,162.70
2018-12-31T05:22:09.890Z,172.30
2018-12-31T05:23:09.887Z,154.60
2018-12-31T05:24:09.851Z,261.20
2018-12-31T05:25:09.832Z,162.90
2018-12-31T05:26:09.822Z,199.30
2018-12-31T05:27:09.812Z,174.60
2018-12-31T05:28:09.828Z,172.30
2018-12-31T05:29:09.804Z,156.00
2018-12-31T05:30:09.787Z,123.60
2018-12-31T05:31:09.770Z,164.60
2018-12-31T05:32:09.760Z,175.10
2018-12-31T05:33:09.755Z,139.50
2018-12-31T05:34:09.767Z,174.60
2018-12-31T05:35:09.761Z,140.70
2018-12-31T05:36:09.717Z,179.30
2018-12-31T05:37:09.703Z,142.20
2018-12-31T05:38:09.696Z,143.00
2018-12-31T05:39:09.690Z,162.80
2018-12-31T05:40:09.702Z,251.90
2018-12-31T05:41:09.670Z,198.40
2018-12-31T05:42:09.654Z,218.70
2018-12-31T05:43:09.638Z,174.20
2018-12-31T05:44:09.631Z,232.30
2018-12-31T05:45:09.623Z,246.60
2018-12-31T05:46:09.638Z,194.30
2018-12-31T05:47:09.610Z,213.60
2018-12-31T05:48:09.599Z,184.30
2018-12-31T05:49:09.578Z,182.50
2018-12-31T05:50:09.570Z,194.60
2018-12-31T05:51:09.566Z,182.50
2018-12-31T05:52:09.589Z,223.70
2018-12-31T05:53:09.546Z,224.50
2018-12-31T05:54:09.531Z,168.10
2018-12-31T05:55:09.520Z,173.50
2018-12-31T05:56:09.512Z,233.20
2018-12-31T05:57:09.501Z,191.30
2018-12-31T05:58:09.603Z,152.20
2018-12-31T05:59:09.482Z,181.60
2018-12-31T06:00:09.478Z,151.20
2018-12-31T06:01:09.452Z,144.30
2018-12-31T06:02:09.448Z,167.10
2018-12-31T06:03:09.437Z,139.90
2018-12-31T06:04:09.472Z,140.80
2018-12-31T06:05:09.414Z,154.00
2018-12-31T06:06:09.405Z,142.90
2018-12-31T06:07:09.393Z,163.50
2018-12-31T06:08:09.396Z,141.90
2018-12-31T06:09:09.375Z,136.90
2018-12-31T06:10:09.391Z,139.10
2018-12-31T06:11:09.353Z,190.10
2018-12-31T06:12:09.343Z,129.50
2018-12-31T06:13:09.338Z,122.30
2018-12-31T06:14:09.327Z,118.70
2018-12-31T06:15:09.319Z,126.60
2018-12-31T06:16:09.330Z,136.00
2018-12-31T06:17:09.301Z,122.90
2018-12-31T06:18:09.313Z,136.20
2018-12-31T06:19:09.264Z,105.70
2018-12-31T06:20:09.255Z,124.20
2018-12-31T06:21:09.263Z,110.10
2018-12-31T06:22:09.272Z,112.50
2018-12-31T06:23:09.272Z,105.20
2018-12-31T06:24:10.581Z,111.40
2018-12-31T06:25:09.227Z,115.00
2018-12-31T06:26:09.218Z,105.60
2018-12-31T06:27:09.200Z,102.90
2018-12-31T06:28:09.610Z,92.80
2018-12-31T06:29:10.091Z,114.60
2018-12-31T06:30:09.156Z,96.00
2018-12-31T06:31:09.199Z,101.90
2018-12-31T06:32:09.128Z,111.60
2018-12-31T06:33:09.122Z,96.20
2018-12-31T06:34:09.226Z,92.20
2018-12-31T06:35:09.095Z,86.30
2018-12-31T06:36:09.099Z,85.20
2018-12-31T06:37:09.078Z,66.80
2018-12-31T06:38:09.079Z,64.00
2018-12-31T06:39:09.068Z,69.30
2018-12-31T06:40:09.085Z,70.10
2018-12-31T06:41:09.036Z,68.60
2018-12-31T06:42:09.037Z,75.10
2018-12-31T06:43:09.014Z,74.60
2018-12-31T06:44:09.000Z,74.60
2018-12-31T06:45:08.993Z,73.00
2018-12-31T06:46:09.011Z,71.10
2018-12-31T06:47:08.970Z,69.40
2018-12-31T06:48:09.002Z,85.20
2018-12-31T06:49:08.948Z,68.30
2018-12-31T06:50:08.944Z,66.40
2018-12-31T06:51:08.931Z,67.60
2018-12-31T06:52:08.951Z,72.10
2018-12-31T06:53:08.912Z,73.10
2018-12-31T06:54:08.897Z,63.90
2018-12-31T06:55:08.904Z,63.30
2018-12-31T06:56:08.882Z,59.30
2018-12-31T06:57:08.867Z,61.60
2018-12-31T06:58:08.886Z,58.70
2018-12-31T06:59:08.842Z,58.90
2018-12-31T07:00:08.844Z,53.70
2018-12-31T07:01:09.560Z,63.70
2018-12-31T07:02:08.827Z,55.00
2018-12-31T07:03:08.813Z,55.00
2018-12-31T07:04:08.824Z,58.90
2018-12-31T07:05:08.782Z,71.00
2018-12-31T07:06:08.778Z,60.70
2018-12-31T07:07:08.770Z,59.60
2018-12-31T07:08:08.755Z,63.60
2018-12-31T07:09:08.747Z,58.50
2018-12-31T07:10:08.755Z,64.70
2018-12-31T07:11:08.723Z,65.70
2018-12-31T07:12:08.704Z,66.60
2018-12-31T07:13:08.700Z,68.00
2018-12-31T07:14:08.690Z,76.40
2018-12-31T07:15:08.686Z,67.70
2018-12-31T07:16:08.692Z,71.30
2018-12-31T07:17:08.652Z,69.30
2018-12-31T07:18:08.655Z,74.70
2018-12-31T07:19:08.638Z,68.60
2018-12-31T07:20:08.630Z,74.10
2018-12-31T07:21:08.618Z,71.10
2018-12-31T07:22:08.684Z,70.50
2018-12-31T07:23:08.588Z,70.50
2018-12-31T07:24:08.623Z,77.20
2018-12-31T07:25:08.577Z,75.60
2018-12-31T07:26:08.687Z,76.30
2018-12-31T07:27:08.561Z,85.60
2018-12-31T07:28:08.631Z,79.00
2018-12-31T07:29:08.572Z,75.80
2018-12-31T07:30:08.535Z,74.80
2018-12-31T07:31:08.506Z,75.70
2018-12-31T07:32:08.508Z,89.50
2018-12-31T07:33:08.492Z,77.70
2018-12-31T07:34:08.507Z,78.10
2018-12-31T07:35:08.468Z,76.80
2018-12-31T07:36:08.457Z,81.90
2018-12-31T07:37:08.466Z,82.10
2018-12-31T07:38:08.446Z,110.40
2018-12-31T07:39:08.427Z,96.10
2018-12-31T07:40:08.449Z,84.30
2018-12-31T07:41:08.401Z,80.60
2018-12-31T07:42:08.395Z,81.30
2018-12-31T07:43:09.641Z,79.90
2018-12-31T07:44:08.376Z,94.40
2018-12-31T07:45:08.361Z,82.10
2018-12-31T07:46:08.384Z,91.30
2018-12-31T07:47:08.343Z,87.40
2018-12-31T07:48:08.397Z,91.10
2018-12-31T07:49:08.324Z,93.90
2018-12-31T07:50:08.307Z,89.50
2018-12-31T07:51:08.315Z,100.50
2018-12-31T07:52:08.314Z,85.90
2018-12-31T07:53:08.297Z,87.90
2018-12-31T07:54:08.265Z,81.80
2018-12-31T07:55:08.253Z,95.00
2018-12-31T07:56:08.265Z,88.90
2018-12-31T07:57:08.232Z,90.00
2018-12-31T07:58:08.257Z,81.60
2018-12-31T07:59:08.219Z,90.00
2018-12-31T08:00:08.217Z,100.10
2018-12-31T08:01:08.210Z,105.50
2018-12-31T08:02:08.185Z,93.00
2018-12-31T08:03:08.202Z,102.90
2018-12-31T08:04:08.229Z,93.70
2018-12-31T08:05:08.150Z,82.20
2018-12-31T08:06:08.148Z,77.50
2018-12-31T08:07:08.133Z,79.70
2018-12-31T08:08:08.122Z,86.40
2018-12-31T08:09:08.115Z,82.40
2018-12-31T08:10:08.120Z,82.10
2018-12-31T08:11:08.110Z,76.30
2018-12-31T08:12:08.076Z,89.50
2018-12-31T08:13:08.158Z,87.20
2018-12-31T08:14:08.059Z,77.80
2018-12-31T08:15:08.066Z,76.70
2018-12-31T08:16:08.068Z,76.60
2018-12-31T08:17:08.059Z,77.00
2018-12-31T08:18:08.049Z,75.80
2018-12-31T08:19:08.009Z,84.50
2018-12-31T08:20:07.992Z,77.10
2018-12-31T08:21:07.984Z,74.70
2018-12-31T08:22:08.011Z,76.50
2018-12-31T08:23:07.985Z,78.00
2018-12-31T08:24:07.957Z,81.60
2018-12-31T08:25:07.947Z,77.70
2018-12-31T08:26:07.968Z,76.60
2018-12-31T08:27:07.920Z,85.20
2018-12-31T08:28:07.940Z,85.60
2018-12-31T08:29:07.905Z,85.10
2018-12-31T08:30:07.902Z,83.60
2018-12-31T08:31:07.882Z,73.60
2018-12-31T08:32:07.883Z,87.00
2018-12-31T08:33:07.852Z,75.80
2018-12-31T08:34:07.969Z,90.70
2018-12-31T08:35:07.840Z,81.90
2018-12-31T08:36:07.884Z,75.20
2018-12-31T08:37:08.300Z,78.30
2018-12-31T08:38:08.940Z,85.70
2018-12-31T08:39:08.323Z,82.10
2018-12-31T08:40:08.136Z,84.30
2018-12-31T08:41:08.103Z,83.00
2018-12-31T08:42:07.782Z,98.80
2018-12-31T08:43:07.863Z,98.10
2018-12-31T08:44:07.894Z,91.20
2018-12-31T08:45:07.827Z,88.30
2018-12-31T08:46:07.817Z,97.60
2018-12-31T08:47:07.705Z,94.50
2018-12-31T08:48:07.848Z,91.10
2018-12-31T08:49:07.714Z,95.70
2018-12-31T08:50:07.681Z,113.60
2018-12-31T08:51:07.670Z,88.00
2018-12-31T08:52:07.686Z,97.00
2018-12-31T08:53:07.718Z,103.10
2018-12-31T08:54:07.652Z,98.40
2018-12-31T08:55:07.710Z,109.10
2018-12-31T08:56:07.615Z,101.20
2018-12-31T08:57:07.713Z,102.00
2018-12-31T08:58:07.638Z,93.00
2018-12-31T08:59:07.589Z,93.70
2018-12-31T09:00:07.571Z,116.40
2018-12-31T09:01:07.762Z,108.90
2018-12-31T09:02:07.545Z,110.10
2018-12-31T09:03:07.617Z,127.30
2018-12-31T09:04:07.525Z,100.50
2018-12-31T09:05:07.515Z,110.20
2018-12-31T09:06:07.512Z,119.00
2018-12-31T09:07:07.537Z,124.30
2018-12-31T09:08:07.488Z,153.70
2018-12-31T09:09:07.508Z,130.50
2018-12-31T09:10:07.483Z,129.90
2018-12-31T09:11:07.454Z,113.70
2018-12-31T09:12:07.457Z,116.30
2018-12-31T09:13:07.429Z,124.80
2018-12-31T09:14:07.423Z,134.70
2018-12-31T09:15:07.473Z,130.00
2018-12-31T09:16:07.415Z,109.20
2018-12-31T09:17:07.395Z,108.90
2018-12-31T09:18:07.494Z,133.70
2018-12-31T09:19:07.420Z,147.10
2018-12-31T09:20:07.357Z,121.70
2018-12-31T09:21:07.362Z,115.90
2018-12-31T09:22:07.355Z,130.80
2018-12-31T09:23:07.330Z,106.50
2018-12-31T09:24:07.337Z,110.00
2018-12-31T09:25:07.302Z,125.90
2018-12-31T09:26:07.345Z,145.40
2018-12-31T09:27:07.292Z,152.80
2018-12-31T09:28:07.285Z,138.90
2018-12-31T09:29:07.267Z,128.00
2018-12-31T09:30:07.252Z,130.60
2018-12-31T09:31:07.864Z,124.00
2018-12-31T09:32:07.269Z,145.30
2018-12-31T09:33:07.232Z,124.00
2018-12-31T09:34:07.217Z,147.50
2018-12-31T09:35:07.205Z,147.20
2018-12-31T09:36:07.197Z,144.00
2018-12-31T09:37:07.227Z,109.00
2018-12-31T09:38:07.231Z,130.80
2018-12-31T09:39:07.169Z,170.00
2018-12-31T09:40:07.151Z,128.90
2018-12-31T09:41:07.180Z,118.80
2018-12-31T09:42:07.123Z,120.60
2018-12-31T09:43:07.154Z,122.40
2018-12-31T09:44:07.118Z,136.20
2018-12-31T09:45:07.111Z,142.30
2018-12-31T09:46:07.096Z,119.50
2018-12-31T09:47:07.077Z,105.00
2018-12-31T09:48:07.064Z,124.10
2018-12-31T09:49:07.087Z,108.10
2018-12-31T09:50:07.040Z,118.60
2018-12-31T09:51:07.034Z,162.50
2018-12-31T09:52:07.051Z,105.40
2018-12-31T09:53:07.019Z,148.80
2018-12-31T09:54:07.019Z,139.10
2018-12-31T09:55:07.021Z,110.60
2018-12-31T09:56:06.993Z,134.70
2018-12-31T09:57:06.968Z,143.00
2018-12-31T09:58:06.967Z,121.90
2018-12-31T09:59:06.954Z,124.30
2018-12-31T10:00:06.951Z,116.90
2018-12-31T10:01:06.971Z,105.80
2018-12-31T10:02:06.920Z,127.40
2018-12-31T10:03:06.909Z,148.40
2018-12-31T10:04:06.904Z,122.50
2018-12-31T10:05:06.889Z,148.80
2018-12-31T10:06:06.893Z,127.80
2018-12-31T10:07:06.882Z,139.30
2018-12-31T10:08:06.864Z,121.20
2018-12-31T10:09:06.841Z,134.20
2018-12-31T10:10:06.836Z,144.10
2018-12-31T10:11:06.842Z,96.70
2018-12-31T10:12:06.835Z,119.80
2018-12-31T10:13:06.811Z,127.20
2018-12-31T10:14:06.802Z,121.80
2018-12-31T10:15:06.786Z,115.80
2018-12-31T10:16:06.773Z,92.70
2018-12-31T10:17:06.811Z,99.40
2018-12-31T10:18:06.748Z,103.60
2018-12-31T10:19:06.737Z,130.00
2018-12-31T10:20:06.726Z,144.90
2018-12-31T10:21:06.715Z,129.00
2018-12-31T10:22:06.721Z,104.30
2018-12-31T10:23:06.726Z,109.70
2018-12-31T10:24:06.689Z,120.90
2018-12-31T10:25:06.766Z,134.30
2018-12-31T10:26:06.826Z,117.80
2018-12-31T10:27:06.656Z,99.60
2018-12-31T10:28:06.649Z,131.70
2018-12-31T10:29:06.662Z,137.20
2018-12-31T10:30:06.626Z,156.90
2018-12-31T10:31:06.632Z,123.80
2018-12-31T10:32:06.615Z,136.70
2018-12-31T10:33:06.608Z,142.30
2018-12-31T10:34:06.614Z,105.20
2018-12-31T10:35:06.596Z,134.00
2018-12-31T10:36:06.562Z,146.90
2018-12-31T10:37:06.565Z,145.00
2018-12-31T10:38:06.576Z,169.60
2018-12-31T10:39:06.527Z,143.90
2018-12-31T10:40:06.548Z,127.80
2018-12-31T10:41:06.504Z,113.30
2018-12-31T10:42:06.571Z,109.90
2018-12-31T10:43:06.506Z,122.80
2018-12-31T10:44:06.473Z,106.80
2018-12-31T10:45:06.462Z,121.50
2018-12-31T10:46:06.514Z,89.90
2018-12-31T10:47:06.448Z,98.60
2018-12-31T10:48:06.431Z,112.50
2018-12-31T10:49:06.461Z,117.10
2018-12-31T10:50:06.413Z,106.20
2018-12-31T10:51:06.409Z,97.30
2018-12-31T10:52:08.019Z,86.60
2018-12-31T10:53:06.377Z,88.30
2018-12-31T10:54:06.392Z,97.40
2018-12-31T10:55:06.383Z,97.90
2018-12-31T10:56:06.386Z,84.30
2018-12-31T10:57:06.409Z,95.90
2018-12-31T10:58:06.345Z,76.70
2018-12-31T10:59:06.342Z,81.90
2018-12-31T11:00:06.362Z,88.20
2018-12-31T11:01:06.313Z,89.80
2018-12-31T11:02:06.292Z,81.10
2018-12-31T11:03:06.334Z,89.20
2018-12-31T11:04:06.296Z,87.10
2018-12-31T11:05:06.286Z,80.90
2018-12-31T11:06:06.277Z,85.90
2018-12-31T11:07:06.250Z,73.10
2018-12-31T11:08:06.296Z,80.10
2018-12-31T11:09:06.241Z,87.10
2018-12-31T11:10:06.274Z,78.60
2018-12-31T11:11:06.226Z,88.70
2018-12-31T11:12:06.205Z,82.00
2018-12-31T11:13:06.315Z,82.00
2018-12-31T11:14:06.231Z,79.10
2018-12-31T11:15:06.165Z,78.20
2018-12-31T11:16:06.154Z,92.10
2018-12-31T11:17:06.314Z,95.90
2018-12-31T11:18:06.130Z,85.10
2018-12-31T11:19:06.133Z,78.50
2018-12-31T11:20:06.364Z,78.20
2018-12-31T11:21:06.122Z,88.00
2018-12-31T11:22:06.143Z,86.30
2018-12-31T11:23:06.167Z,83.70
2018-12-31T11:24:06.266Z,90.30
2018-12-31T11:25:06.191Z,81.60
2018-12-31T11:26:06.235Z,83.30
2018-12-31T11:27:06.564Z,88.90
2018-12-31T11:28:06.200Z,79.30
2018-12-31T11:29:06.351Z,79.70
2018-12-31T11:30:06.194Z,74.40
2018-12-31T11:31:06.443Z,86.70
2018-12-31T11:32:06.177Z,78.80
2018-12-31T11:33:06.107Z,70.80
2018-12-31T11:34:06.119Z,77.40
2018-12-31T11:35:06.080Z,81.80
2018-12-31T11:36:06.135Z,69.20
2018-12-31T11:37:06.254Z,68.80
2018-12-31T11:38:06.008Z,64.30
2018-12-31T11:39:05.948Z,63.20
2018-12-31T11:40:05.944Z,71.20
2018-12-31T11:41:05.958Z,64.60
2018-12-31T11:42:05.864Z,60.80
2018-12-31T11:43:05.876Z,69.20
2018-12-31T11:44:05.865Z,61.60
2018-12-31T11:45:05.838Z,61.40
2018-12-31T11:46:05.820Z,54.40
2018-12-31T11:47:05.826Z,56.90
2018-12-31T11:48:05.804Z,50.30
2018-12-31T11:49:05.814Z,52.70
2018-12-31T11:50:05.805Z,44.80
2018-12-31T11:51:05.765Z,51.10
2018-12-31T11:52:05.758Z,43.30
2018-12-31T11:53:05.753Z,41.50
2018-12-31T11:54:05.780Z,50.30
2018-12-31T11:55:05.732Z,55.00
2018-12-31T11:56:05.718Z,88.90
2018-12-31T11:57:05.703Z,67.50
2018-12-31T11:58:05.747Z,66.80
2018-12-31T11:59:05.698Z,71.10
2018-12-31T12:00:05.715Z,66.10
2018-12-31T12:01:05.668Z,73.30
2018-12-31T12:02:05.694Z,68.60
2018-12-31T12:03:05.643Z,65.10
2018-12-31T12:04:05.632Z,52.90
2018-12-31T12:05:05.636Z,48.90
2018-12-31T12:06:05.641Z,66.90
2018-12-31T12:07:05.609Z,47.40
2018-12-31T12:08:05.626Z,45.30
2018-12-31T12:09:05.610Z,36.60
2018-12-31T12:10:05.573Z,48.80
2018-12-31T12:11:05.580Z,46.20
2018-12-31T12:12:05.557Z,44.40
2018-12-31T12:13:05.548Z,45.80
2018-12-31T12:14:05.535Z,43.50
2018-12-31T12:15:05.517Z,40.70
2018-12-31T12:16:05.508Z,39.60
2018-12-31T12:17:05.534Z,38.70
2018-12-31T12:18:05.491Z,39.50
2018-12-31T12:19:05.654Z,40.70
2018-12-31T12:20:05.466Z,38.40
2018-12-31T12:21:05.495Z,34.20
2018-12-31T12:22:05.465Z,36.30
2018-12-31T12:23:05.456Z,36.20
2018-12-31T12:24:05.418Z,39.40
2018-12-31T12:25:05.415Z,35.90
2018-12-31T12:26:05.396Z,40.00
2018-12-31T12:27:05.397Z,37.20
2018-12-31T12:28:05.448Z,42.30
2018-12-31T12:29:05.363Z,37.50
2018-12-31T12:30:05.366Z,37.30
2018-12-31T12:31:05.695Z,38.50
2018-12-31T12:32:05.528Z,40.20
2018-12-31T12:33:05.346Z,43.00
2018-12-31T12:34:05.411Z,43.10
2018-12-31T12:35:05.312Z,37.00
2018-12-31T12:36:05.295Z,39.60
2018-12-31T12:37:05.383Z,39.90
2018-12-31T12:38:05.314Z,37.50
2018-12-31T12:39:06.368Z,33.00
2018-12-31T12:40:05.251Z,35.60
2018-12-31T12:41:05.238Z,37.60
2018-12-31T12:42:05.248Z,35.70
2018-12-31T12:43:05.224Z,40.20
2018-12-31T12:44:05.217Z,40.60
2018-12-31T12:45:05.603Z,38.50